Time;durP1;ratioP1;P1;durP2;ratioP2;P2;SDS_P1;SDS_P2;PMS_P1;PMS_P2;Temp;Humidity;BMP_temperature;BMP_pressure;BME280_temperature;BME280_humidity;BME280_pressure;Samples;Min_cycle;Max_cycle;Signal;HPM_P1;HPM_P2
2022/10/03 00:00:15;;;;;;;27.02;4.40;;;8.60;99.90;;;7.65;100.00;98583.69;6203826;23;20033;-68
2022/10/03 00:03:28;;;;;;;95.55;7.20;;;8.60;99.90;;;7.55;100.00;98589.88;6203422;23;20029;-68
2022/10/03 00:06:08;;;;;;;103.53;7.85;;;8.50;99.90;;;7.53;100.00;98591.63;6204734;23;20373;-68
2022/10/03 00:09:17;;;;;;;84.05;6.30;;;8.50;99.90;;;7.59;100.00;98601.00;6203653;23;20116;-68
2022/10/03 00:12:10;;;;;;;11.18;2.72;;;8.50;99.90;;;7.71;100.00;98606.88;6205000;23;20024;-68
2022/10/03 00:15:12;;;;;;;6.68;3.25;;;8.50;99.90;;;7.80;100.00;98605.88;6203340;23;20021;-68
2022/10/03 00:17:54;;;;;;;21.27;3.97;;;8.50;99.90;;;7.84;100.00;98604.09;6202144;23;20029;-68
2022/10/03 00:20:54;;;;;;;26.45;3.42;;;8.50;99.90;;;7.78;100.00;98599.00;6203125;23;20017;-68
2022/10/03 00:23:55;;;;;;;23.83;4.32;;;8.50;99.90;;;7.88;100.00;98603.16;6206097;23;20043;-68
2022/10/03 00:26:48;;;;;;;7.55;2.92;;;8.50;99.90;;;7.73;100.00;98607.69;6229304;23;20024;-68
2022/10/03 00:29:35;;;;;;;10.98;2.85;;;8.40;99.90;;;7.73;100.00;98612.00;6203071;23;20021;-68
2022/10/03 00:32:08;;;;;;;15.32;3.85;;;8.30;99.90;;;7.74;100.00;98605.97;6202786;23;20028;-68
2022/10/03 00:34:41;;;;;;;;;;;8.40;99.90;;;7.71;100.00;98611.19;6204341;23;20020;-68
2022/10/03 00:37:13;;;;;;;5.20;2.25;;;8.40;99.90;;;7.78;100.00;98605.03;6202229;23;20343;-68
2022/10/03 00:40:00;;;;;;;17.98;3.28;;;8.40;99.90;;;7.71;100.00;98612.03;6212080;23;20025;-68
2022/10/03 00:43:06;;;;;;;39.17;3.80;;;8.40;99.90;;;7.53;100.00;98607.13;6214624;23;20032;-68
2022/10/03 00:46:17;;;;;;;66.72;3.72;;;8.30;99.90;;;7.36;100.00;98603.91;6211779;23;20055;-68
2022/10/03 00:49:30;;;;;;;8.32;1.90;;;8.20;99.90;;;7.36;100.00;98602.16;6216421;23;20021;-68
2022/10/03 00:52:10;;;;;;;53.30;3.78;;;8.10;99.90;;;7.29;100.00;98605.72;6226887;23;20068;-68
2022/10/03 00:55:03;;;;;;;37.30;2.88;;;8.00;99.90;;;7.31;100.00;98602.22;6204353;23;20032;-68
2022/10/03 00:57:51;;;;;;;52.72;3.60;;;8.00;99.90;;;7.16;100.00;98597.28;6205226;23;20096;-69
2022/10/03 01:00:31;;;;;;;43.80;3.47;;;7.90;99.90;;;7.10;100.00;98585.28;6205293;23;20032;-68
2022/10/03 01:03:31;;;;;;;23.52;2.40;;;7.80;99.90;;;6.97;100.00;98581.16;6202560;23;20024;-68
2022/10/03 01:06:37;;;;;;;21.70;2.38;;;7.70;99.90;;;7.00;100.00;98586.28;6203846;23;20029;-68
2022/10/03 01:09:17;;;;;;;17.33;2.13;;;7.60;99.90;;;6.91;100.00;98579.50;6204418;23;20025;-68
2022/10/03 01:12:17;;;;;;;13.10;1.30;;;7.50;99.90;;;6.78;100.00;98575.34;6201466;23;20723;-68
2022/10/03 01:15:02;;;;;;;110.78;4.55;;;7.50;99.90;;;6.72;100.00;98565.09;6202504;23;20079;-68
2022/10/03 01:18:09;;;;;;;25.48;1.80;;;7.40;99.90;;;6.71;100.00;98571.13;6203236;23;20492;-68
2022/10/03 01:21:13;;;;;;;2.28;1.33;;;7.30;99.90;;;6.60;100.00;98573.81;6229845;23;20044;-68
2022/10/03 01:24:01;;;;;;;4.75;1.25;;;7.30;99.90;;;6.59;100.00;98572.13;6207683;23;20021;-68
2022/10/03 01:27:07;;;;;;;9.48;1.90;;;7.20;99.90;;;6.52;100.00;98565.31;6206655;23;20032;-68
2022/10/03 01:33:09;;;;;;;6.38;1.48;;;7.20;99.90;;;6.56;100.00;98563.56;6205610;23;20029;-68
2022/10/03 01:35:52;;;;;;;42.40;2.28;;;7.20;99.90;;;6.62;100.00;98566.94;6205518;23;20017;-68
2022/10/03 01:38:54;;;;;;;59.15;3.42;;;7.20;99.90;;;6.50;100.00;98564.50;6205063;23;20027;-68
2022/10/03 01:41:49;;;;;;;21.30;2.50;;;7.20;99.90;;;6.54;100.00;98554.97;6207837;23;20021;-68
2022/10/03 01:44:25;;;;;;;34.47;2.17;;;7.20;99.90;;;6.41;100.00;98555.13;6205567;23;20028;-68
2022/10/03 01:47:12;;;;;;;58.33;4.55;;;7.10;99.90;;;6.20;100.00;98550.16;6206263;23;20020;-68
2022/10/03 01:50:11;;;;;;;48.35;3.50;;;7.00;99.90;;;6.20;100.00;98545.00;6207039;23;20024;-68
2022/10/03 01:52:59;;;;;;;4.82;1.48;;;7.00;99.90;;;6.30;100.00;98543.22;6177792;23;20021;-68
2022/10/03 01:55:54;;;;;;;4.80;1.65;;;7.00;99.90;;;6.32;100.00;98550.06;6206709;23;20024;-68
2022/10/03 01:58:26;;;;;;;6.05;1.95;;;7.00;99.90;;;6.40;100.00;98548.25;6207430;23;20025;-69
2022/10/03 02:01:12;;;;;;;12.23;1.60;;;7.00;99.90;;;6.30;100.00;98550.94;6207019;23;20032;-67
2022/10/03 02:04:03;;;;;;;24.70;3.50;;;7.00;99.90;;;6.15;100.00;98547.63;6206066;23;20104;-67
2022/10/03 02:07:19;;;;;;;7.90;1.70;;;7.00;99.90;;;6.39;100.00;98550.84;6204195;23;20749;-69
2022/10/03 02:10:19;;;;;;;10.52;1.90;;;7.10;99.90;;;6.43;100.00;98540.50;6159972;23;20020;-70
2022/10/03 02:13:15;;;;;;;14.95;2.97;;;7.20;99.90;;;6.47;100.00;98538.72;6206366;23;20032;-70
2022/10/03 02:16:20;;;;;;;122.03;7.13;;;7.30;99.90;;;6.24;100.00;98546.69;6203954;23;20492;-69
2022/10/03 02:19:05;;;;;;;29.13;2.95;;;7.30;99.90;;;6.44;100.00;98537.03;6204048;23;20040;-69
2022/10/03 02:21:46;;;;;;;64.30;5.20;;;7.30;99.90;;;6.46;100.00;98531.84;6205360;23;20021;-69
2022/10/03 02:24:16;;;;;;;9.85;2.70;;;7.40;99.90;;;6.64;100.00;98531.66;6207887;23;20020;-69
2022/10/03 02:27:14;;;;;;;62.80;7.18;;;7.40;99.90;;;6.63;100.00;98529.09;6204724;23;20031;-69
2022/10/03 02:30:20;;;;;;;76.70;6.05;;;7.50;99.90;;;6.52;100.00;98534.34;6206012;23;20025;-69
2022/10/03 02:33:15;;;;;;;4.07;2.50;;;7.60;99.90;;;6.73;100.00;98524.66;6204040;23;20025;-69
2022/10/03 02:36:19;;;;;;;7.65;2.75;;;7.60;99.90;;;6.88;100.00;98529.63;6206726;23;20021;-69
2022/10/03 02:39:07;;;;;;;7.63;3.65;;;7.70;99.90;;;7.01;100.00;98520.03;6205600;23;20059;-69
2022/10/03 02:41:52;;;;;;;10.23;4.05;;;7.80;99.90;;;7.01;100.00;98510.53;6206336;23;20107;-69
2022/10/03 02:45:03;;;;;;;92.57;10.60;;;7.80;99.90;;;6.63;100.00;98514.44;6204312;23;20028;-69
2022/10/03 02:48:15;;;;;;;66.15;8.00;;;7.70;99.90;;;6.54;100.00;98506.81;6203755;23;20393;-69
2022/10/03 02:51:25;;;;;;;188.95;16.52;;;7.60;99.90;;;6.44;100.00;98513.81;6188933;23;20097;-69
2022/10/03 02:54:04;;;;;;;41.42;7.10;;;7.60;99.90;;;6.50;100.00;98505.16;6206300;23;20548;-69
2022/10/03 02:57:21;;;;;;;26.55;6.88;;;7.50;99.90;;;6.73;100.00;98506.59;6206391;23;20091;-69
2022/10/03 03:00:06;;;;;;;13.38;4.63;;;7.50;99.90;;;6.73;100.00;98514.34;6206368;23;20029;-69
2022/10/03 03:03:05;;;;;;;199.65;13.70;;;7.50;99.90;;;6.35;100.00;98518.22;6201742;23;20464;-69
2022/10/03 03:05:56;;;;;;;13.65;4.22;;;7.50;99.90;;;6.65;100.00;98522.19;6201603;23;20027;-69
2022/10/03 03:08:57;;;;;;;9.80;3.40;;;7.50;99.90;;;6.70;100.00;98526.44;6203051;23;20499;-69
2022/10/03 03:12:04;;;;;;;12.38;2.58;;;7.40;99.90;;;6.69;100.00;98522.13;6205155;23;20024;-69
2022/10/03 03:15:19;;;;;;;23.85;2.88;;;7.40;99.90;;;6.62;100.00;98529.97;6216482;23;20024;-69
2022/10/03 03:18:05;;;;;;;80.72;5.60;;;7.30;99.90;;;6.45;100.00;98527.56;6202909;23;20036;-70
2022/10/03 03:21:15;;;;;;;214.65;7.68;;;7.30;99.90;;;6.45;100.00;98531.00;6205935;23;20044;-69
2022/10/03 03:24:10;;;;;;;141.65;6.07;;;7.20;99.90;;;6.36;100.00;98535.38;6149283;23;20021;-69
2022/10/03 03:26:54;;;;;;;19.42;1.98;;;7.10;99.90;;;6.41;100.00;98529.34;6203606;23;20468;-69
2022/10/03 03:29:23;;;;;;;9.90;1.55;;;7.10;99.90;;;6.41;100.00;98533.59;6206147;23;20111;-69
2022/10/03 03:32:30;;;;;;;11.50;1.30;;;7.00;99.90;;;6.37;100.00;98532.81;6205109;23;20024;-69
2022/10/03 03:35:22;;;;;;;30.27;2.83;;;7.00;99.90;;;6.28;100.00;98536.31;6204817;23;20025;-68
2022/10/03 03:38:25;;;;;;;53.88;3.33;;;6.90;99.90;;;6.06;100.00;98534.81;6203221;23;20035;-69
2022/10/03 03:41:37;;;;;;;45.15;2.65;;;6.90;99.90;;;6.07;100.00;98524.50;6205174;23;20024;-69
2022/10/03 03:44:42;;;;;;;11.85;1.38;;;6.80;99.90;;;5.87;100.00;98527.22;6204625;23;20097;-69
2022/10/03 03:47:37;;;;;;;6.28;1.20;;;6.70;99.90;;;5.95;100.00;98524.59;6205028;23;20029;-69
2022/10/03 03:50:44;;;;;;;23.48;1.77;;;6.70;99.90;;;5.90;100.00;98522.91;6202594;23;20447;-69
2022/10/03 03:53:39;;;;;;;34.78;2.15;;;6.60;99.90;;;6.01;100.00;98527.13;6204059;23;20024;-69
2022/10/03 03:56:56;;;;;;;25.67;2.33;;;6.60;99.90;;;5.91;100.00;98527.19;6228510;23;20035;-68
2022/10/03 03:59:40;;;;;;;14.02;2.08;;;6.60;99.90;;;5.93;100.00;98530.59;6205032;23;20020;-68
2022/10/03 04:02:42;;;;;;;11.60;2.17;;;6.60;99.90;;;6.02;100.00;98528.84;6204579;23;20028;-68
2022/10/03 04:05:32;;;;;;;6.57;1.75;;;6.60;99.90;;;5.92;100.00;98521.19;6178016;23;20028;-68
2022/10/03 04:08:35;;;;;;;11.32;1.48;;;6.70;99.90;;;5.93;100.00;98523.75;6202305;23;20020;-68
2022/10/03 04:11:39;;;;;;;28.75;3.97;;;6.70;99.90;;;5.85;100.00;98523.81;6206191;23;20032;-69
2022/10/03 04:14:40;;;;;;;112.60;4.75;;;6.60;99.90;;;5.72;100.00;98517.03;6185375;23;20035;-68
2022/10/03 04:21:00;;;;;;;10.88;1.80;;;6.50;99.90;;;5.72;100.00;98516.19;6206813;23;20016;-68
2022/10/03 04:24:12;;;;;;;7.35;1.20;;;6.50;99.90;;;5.71;100.00;98514.50;6205122;23;20020;-68
2022/10/03 04:27:16;;;;;;;10.80;2.00;;;6.50;99.90;;;5.70;100.00;98516.19;6204608;23;20642;-68
2022/10/03 04:30:15;;;;;;;9.65;1.70;;;6.40;99.90;;;5.67;100.00;98513.66;6204783;23;20484;-68
2022/10/03 04:33:13;;;;;;;8.05;1.80;;;6.40;99.90;;;5.65;100.00;98512.81;6203369;23;20314;-68
2022/10/03 04:36:07;;;;;;;4.32;1.45;;;6.30;99.90;;;5.63;100.00;98505.09;6203743;23;20051;-68
2022/10/03 04:38:58;;;;;;;6.55;1.80;;;6.30;99.90;;;5.54;100.00;98504.31;6203765;23;20032;-68
2022/10/03 04:41:39;;;;;;;6.93;2.40;;;6.30;99.90;;;5.53;100.00;98502.59;6205906;23;20504;-68
2022/10/03 04:44:46;;;;;;;7.28;2.50;;;6.30;99.90;;;5.57;100.00;98515.44;6202637;23;20024;-68
2022/10/03 04:47:25;;;;;;;4.43;2.30;;;6.30;99.90;;;5.55;100.00;98513.75;6205452;23;20054;-68
2022/10/03 04:50:11;;;;;;;5.93;2.00;;;6.30;99.90;;;5.51;100.00;98528.34;6207341;23;20025;-68
2022/10/03 04:53:04;;;;;;;5.90;2.50;;;6.30;99.90;;;5.56;100.00;98525.75;6212620;23;20035;-69
2022/10/03 04:55:45;;;;;;;10.43;2.30;;;6.30;99.90;;;5.55;100.00;98524.06;6212207;23;20024;-68
2022/10/03 04:58:40;;;;;;;16.83;2.03;;;6.30;99.90;;;5.36;100.00;98531.03;6209986;23;20031;-69
2022/10/03 05:01:20;;;;;;;40.50;3.63;;;6.30;99.90;;;5.30;100.00;98537.09;6181339;23;20032;-68
2022/10/03 05:04:09;;;;;;;27.60;2.50;;;6.10;99.90;;;5.29;100.00;98534.50;6205414;23;20035;-68
2022/10/03 05:07:14;;;;;;;25.30;2.03;;;6.10;99.90;;;5.15;100.00;98532.88;6205321;23;20104;-68
2022/10/03 05:09:57;;;;;;;11.82;1.85;;;6.10;99.90;;;5.17;100.00;98531.16;6207518;23;20021;-68
2022/10/03 05:13:11;;;;;;;3.03;1.45;;;6.00;99.90;;;5.17;100.00;98535.44;6204106;23;20094;-68
2022/10/03 05:15:49;;;;;;;11.98;1.73;;;5.90;99.90;;;5.13;100.00;98537.19;6204774;23;20459;-68
2022/10/03 05:18:39;;;;;;;5.45;1.65;;;5.90;99.90;;;5.05;100.00;98536.38;6206404;23;20024;-68
2022/10/03 05:21:34;;;;;;;1.92;1.00;;;5.90;99.90;;;5.05;100.00;98541.50;6203717;23;20031;-68
2022/10/03 05:24:21;;;;;;;6.13;1.50;;;5.80;99.90;;;5.03;100.00;98544.09;6203870;23;20024;-68
2022/10/03 05:27:11;;;;;;;1.83;0.98;;;5.80;99.90;;;4.99;100.00;98544.09;6203679;23;20119;-68
2022/10/03 05:30:18;;;;;;;3.08;1.30;;;5.70;99.90;;;4.76;100.00;98547.63;6207806;23;20078;-68
2022/10/03 05:33:06;;;;;;;34.08;4.10;;;5.70;99.90;;;4.74;100.00;98557.06;6205144;23;20103;-68
2022/10/03 05:36:11;;;;;;;3.05;1.55;;;5.70;99.90;;;4.90;100.00;98555.28;6204601;23;20036;-68
2022/10/03 05:39:01;;;;;;;5.85;1.30;;;5.70;99.90;;;4.97;100.00;98559.56;6205326;23;20017;-68
2022/10/03 05:41:32;;;;;;;15.35;2.38;;;5.80;99.90;;;4.88;100.00;98563.88;6204930;23;20072;-68
2022/10/03 05:44:40;;;;;;;36.70;3.35;;;5.80;99.90;;;4.84;100.00;98565.63;6205101;23;20021;-68
2022/10/03 05:47:45;;;;;;;5.75;1.50;;;5.70;99.90;;;4.92;100.00;98568.16;6173278;23;20040;-68
2022/10/03 05:50:40;;;;;;;17.65;1.90;;;5.80;99.90;;;4.91;100.00;98577.59;6202470;23;20031;-68
2022/10/03 05:53:33;;;;;;;5.57;1.67;;;5.80;99.90;;;4.97;100.00;98579.28;6228348;23;20036;-68
2022/10/03 05:56:43;;;;;;;16.67;2.13;;;5.80;99.90;;;4.99;100.00;98582.69;6199306;23;20032;-68
2022/10/03 05:59:55;;;;;;;73.85;6.18;;;5.80;99.90;;;4.94;100.00;98585.28;6199650;23;20108;-68
2022/10/03 06:03:02;;;;;;;45.97;4.78;;;5.80;99.90;;;4.88;100.00;98589.59;6197089;23;20094;-68
2022/10/03 06:05:55;;;;;;;88.70;3.25;;;5.80;99.90;;;4.87;100.00;98587.91;6202225;23;20372;-68
2022/10/03 06:08:44;;;;;;;11.68;1.20;;;5.80;99.90;;;4.86;100.00;98597.34;6201585;23;20035;-68
2022/10/03 06:11:49;;;;;;;19.85;1.88;;;5.90;99.90;;;4.89;100.00;98597.31;6204485;23;20550;-68
2022/10/03 06:15:08;;;;;;;32.65;2.50;;;5.90;99.90;;;4.96;100.00;98593.03;6204209;23;20025;-68
2022/10/03 06:18:11;;;;;;;22.35;1.63;;;6.00;99.90;;;5.07;100.00;98595.56;6203553;23;20039;-68
2022/10/03 06:21:13;;;;;;;26.33;1.90;;;6.00;99.90;;;5.03;100.00;98597.28;6206082;23;20021;-68
2022/10/03 06:23:57;;;;;;;4.63;1.20;;;6.00;99.90;;;4.99;100.00;98591.28;6205380;23;20031;-68
2022/10/03 06:27:15;;;;;;;2.63;1.48;;;5.90;99.90;;;4.91;100.00;98587.88;6205646;23;20618;-68
2022/10/03 06:30:04;;;;;;;6.65;1.48;;;5.80;99.90;;;4.98;100.00;98592.16;6171521;23;20024;-68
2022/10/03 06:33:11;;;;;;;9.48;2.40;;;5.90;99.90;;;5.09;100.00;98599.00;6203560;23;20384;-68
2022/10/03 06:36:02;;;;;;;4.80;1.77;;;6.00;99.90;;;5.28;100.00;98599.75;6206737;23;20025;-68
2022/10/03 06:38:51;;;;;;;9.02;2.42;;;6.20;99.90;;;5.36;100.00;98610.84;6203841;23;20090;-68
2022/10/03 06:41:55;;;;;;;45.92;3.15;;;6.40;99.90;;;5.62;100.00;98621.88;6206119;23;20025;-68
2022/10/03 06:44:55;;;;;;;31.10;3.42;;;6.60;99.90;;;5.79;100.00;98626.94;6206435;23;20032;-68
2022/10/03 06:47:34;;;;;;;91.20;5.47;;;6.90;99.90;;;6.01;100.00;98635.38;6204738;23;20107;-68
2022/10/03 06:50:45;;;;;;;38.80;3.78;;;7.10;99.90;;;6.17;100.00;98636.13;6207150;23;20029;-68
2022/10/03 06:54:05;;;;;;;65.53;5.10;;;7.20;99.90;;;6.31;100.00;98642.88;6205857;23;20336;-68
2022/10/03 06:56:52;;;;;;;239.32;11.13;;;7.40;99.90;;;6.42;100.00;98644.50;6203678;23;20024;-68
2022/10/03 06:59:42;;;;;;;258.83;10.38;;;7.50;99.90;;;6.51;100.00;98650.47;6189574;23;20021;-68
2022/10/03 07:02:36;;;;;;;107.50;5.28;;;7.60;99.90;;;6.54;100.00;98660.75;6203535;23;20035;-68
2022/10/03 07:06:00;;;;;;;236.27;7.75;;;7.80;99.90;;;6.85;100.00;98658.72;6205141;23;20021;-68
2022/10/03 07:08:48;;;;;;;55.92;4.32;;;7.90;99.90;;;6.87;100.00;98668.16;6206702;23;20076;-68
2022/10/03 07:11:49;;;;;;;191.15;5.95;;;8.10;99.90;;;7.18;100.00;98661.81;6204223;23;20027;-68
2022/10/03 07:14:50;;;;;;;140.57;4.72;;;8.30;99.90;;;7.27;100.00;98656.53;6204218;23;20840;-68
2022/10/03 07:17:41;;;;;;;38.40;2.10;;;8.40;99.90;;;7.47;100.00;98659.72;6201484;23;20233;-68
2022/10/03 07:20:44;;;;;;;87.53;5.57;;;8.60;99.90;;;7.60;100.00;98667.31;6206395;23;20028;-67
2022/10/03 07:24:12;;;;;;;117.53;4.70;;;8.80;99.90;;;7.93;100.00;98650.47;6201971;23;20048;-67
2022/10/03 07:27:33;;;;;;;51.90;2.45;;;9.00;99.90;;;8.16;100.00;98640.66;6176254;23;20420;-67
2022/10/03 07:30:15;;;;;;;28.20;1.30;;;9.20;99.90;;;8.27;100.00;98642.19;6203635;23;20024;-67
2022/10/03 07:33:16;;;;;;;160.70;6.32;;;9.50;99.90;;;8.14;100.00;98636.34;6201339;23;20024;-67
2022/10/03 07:39:25;;;;;;;298.15;17.73;;;9.70;99.90;;;7.57;100.00;98638.94;6205468;23;20036;-67
2022/10/03 07:42:28;;;;;;;74.97;7.07;;;9.60;99.90;;;7.61;100.00;98638.88;6201968;23;20032;-67
2022/10/03 07:45:33;;;;;;;75.22;4.68;;;9.50;99.90;;;8.26;100.00;98631.00;6137295;23;20092;-67
2022/10/03 07:48:16;;;;;;;134.73;8.13;;;9.60;99.90;;;8.24;100.00;98640.53;6202456;23;20524;-67
2022/10/03 07:50:46;;;;;;;89.00;5.90;;;9.70;99.90;;;8.41;100.00;98629.91;6203439;23;20023;-67
2022/10/03 07:53:55;;;;;;;97.35;8.25;;;9.80;99.90;;;8.52;100.00;98632.31;6201987;23;20025;-67
2022/10/03 07:56:54;;;;;;;192.82;13.10;;;9.90;99.90;;;8.31;100.00;98630.94;6201890;23;20035;-67
2022/10/03 07:59:55;;;;;;;179.27;14.20;;;10.10;99.90;;;8.61;100.00;98627.00;6201759;23;20408;-67
2022/10/03 08:02:44;;;;;;;22.98;4.32;;;10.20;99.90;;;9.28;100.00;98621.38;6205686;23;20024;-67
2022/10/03 08:06:09;;;;;;;80.55;7.90;;;10.40;99.90;;;9.41;100.00;98613.31;6206556;23;20044;-67
2022/10/03 08:09:23;;;;;;;93.00;6.88;;;10.60;99.90;;;9.23;100.00;98608.53;6138202;23;20552;-67
2022/10/03 08:12:27;;;;;;;;;;;10.80;99.90;;;9.18;100.00;98606.03;6084880;23;20025;-67
2022/10/03 08:15:08;;;;;;;17.50;7.05;;;10.90;99.90;;;9.54;100.00;98608.75;6212121;23;19946;-67
2022/10/03 08:18:00;;;;;;;9.35;4.90;;;11.10;99.90;;;10.05;100.00;98587.66;6210717;23;20024;-67
2022/10/03 08:20:55;;;;;;;8.50;4.55;;;11.30;99.90;;;10.36;100.00;98576.56;6200473;23;20029;-67
2022/10/03 08:24:09;;;;;;;6.47;2.90;;;11.70;99.90;;;11.43;100.00;98561.47;6203939;23;20028;-67
2022/10/03 08:26:42;;;;;;;;;;;12.20;99.90;;;12.02;100.00;98543.16;6199200;23;20031;-67
2022/10/03 08:29:37;;;;;;;7.38;2.60;;;12.70;99.90;;;12.37;100.00;98535.06;6216560;23;19915;-67
2022/10/03 08:32:32;;;;;;;8.05;2.60;;;13.40;99.90;;;13.05;100.00;98513.50;6207625;23;20040;-68
2022/10/03 08:35:49;;;;;;;4.88;2.45;;;13.80;99.90;;;13.77;100.00;98502.88;6198310;23;20032;-68
2022/10/03 08:38:32;;;;;;;4.60;2.28;;;14.20;99.90;;;13.86;100.00;98500.81;6156796;23;20086;-68
2022/10/03 08:41:40;;;;;;;4.10;1.95;;;14.70;99.90;;;14.00;100.00;98495.84;6205070;23;20043;-68
2022/10/03 08:44:29;;;;;;;45.47;3.50;;;15.00;99.90;;;12.89;100.00;98510.63;6203220;23;20083;-68
2022/10/03 08:47:24;;;;;;;40.40;3.10;;;14.90;99.90;;;12.28;100.00;98507.59;6199335;23;20059;-68
2022/10/03 08:50:06;;;;;;;15.60;2.45;;;14.20;99.90;;;12.12;100.00;98508.13;6204153;23;20021;-68
2022/10/03 08:53:03;;;;;;;35.45;3.42;;;13.80;99.90;;;11.75;100.00;98518.03;6204476;23;20539;-68
2022/10/03 08:56:12;;;;;;;62.90;4.22;;;13.60;99.90;;;11.84;100.00;98526.38;6203672;23;20032;-68
2022/10/03 08:59:00;;;;;;;22.65;3.55;;;13.40;99.90;;;12.13;100.00;98527.19;6205581;23;20024;-71
2022/10/03 09:01:52;;;;;;;54.92;4.78;;;13.70;99.90;;;12.28;100.00;98524.06;6203714;23;20593;-68
2022/10/03 09:04:38;;;;;;;36.50;4.20;;;13.80;99.90;;;11.73;100.00;98531.91;6201467;23;20052;-68
2022/10/03 09:07:30;;;;;;;88.75;5.82;;;;;;;11.60;100.00;98534.94;6204405;23;20017;-69
2022/10/03 09:10:15;;;;;;;18.75;3.80;;;;;;;11.84;100.00;98539.38;6179351;23;20025;-67
2022/10/03 09:13:08;;;;;;;5.40;3.35;;;13.30;99.90;;;12.29;100.00;98540.53;6203559;23;20031;-67
2022/10/03 09:16:10;;;;;;;5.20;2.47;;;13.50;99.90;;;12.63;100.00;98537.59;6228752;23;20032;-68
2022/10/03 09:19:01;;;;;;;8.00;2.83;;;13.70;99.90;;;12.37;100.00;98540.28;6204117;23;20032;-69
2022/10/03 09:22:05;;;;;;;7.20;2.55;;;13.40;99.90;;;12.30;100.00;98535.28;6203414;23;20029;-68
2022/10/03 09:25:04;;;;;;;4.22;2.25;;;13.40;99.90;;;12.17;100.00;98538.34;6202001;23;20078;-68
2022/10/03 09:28:08;;;;;;;6.03;2.33;;;13.20;99.90;;;12.22;100.00;98549.44;6203943;23;20059;-69
2022/10/03 09:31:08;;;;;;;6.60;2.97;;;13.10;99.90;;;12.00;100.00;98547.56;6198569;23;20052;-69
2022/10/03 09:34:03;;;;;;;8.18;3.05;;;12.90;99.90;;;12.04;100.00;98556.09;6203435;23;20021;-69
2022/10/03 09:36:52;;;;;;;5.70;2.70;;;12.80;99.90;;;12.09;100.00;98562.88;6203969;23;20537;-68
2022/10/03 09:39:40;;;;;;;6.53;2.42;;;12.80;99.90;;;11.92;100.00;98560.81;6207468;23;20020;-69
2022/10/03 09:42:32;;;;;;;6.15;2.90;;;12.90;99.90;;;11.94;100.00;98568.56;6209904;23;20025;-68
2022/10/03 09:45:13;;;;;;;5.83;2.87;;;12.90;99.90;;;12.02;100.00;98569.19;6208272;23;20036;-68
2022/10/03 09:48:13;;;;;;;4.82;2.83;;;12.90;99.90;;;11.97;100.00;98575.44;6206598;23;20298;-69
2022/10/03 09:50:58;;;;;;;7.20;2.90;;;13.00;99.90;;;12.00;100.00;98570.16;6209698;23;20025;-69
2022/10/03 09:54:07;;;;;;;7.68;3.20;;;12.90;99.90;;;12.18;100.00;98568.66;6206671;23;20574;-69
2022/10/03 09:56:51;;;;;;;9.57;4.10;;;13.00;99.90;;;11.87;100.00;98575.72;6203307;23;20025;-68
2022/10/03 09:59:56;;;;;;;5.82;3.65;;;12.90;99.90;;;11.86;100.00;98570.53;6205101;23;20105;-68
2022/10/03 10:03:09;;;;;;;8.90;4.15;;;12.90;99.90;;;11.70;100.00;98573.63;6205130;23;20429;-68
2022/10/03 10:06:02;;;;;;;9.45;5.18;;;12.90;99.90;;;11.65;100.00;98572.91;6202063;23;20028;-69
2022/10/03 10:08:57;;;;;;;7.70;4.47;;;12.70;99.90;;;11.80;100.00;98565.53;6200733;23;20468;-68
2022/10/03 10:11:44;;;;;;;8.40;4.72;;;12.80;99.90;;;11.79;100.00;98563.81;6202157;23;20016;-68
2022/10/03 10:14:35;;;;;;;10.70;5.00;;;12.80;99.90;;;11.85;100.00;98564.47;6204389;23;20025;-68
2022/10/03 10:17:27;;;;;;;8.98;4.22;;;12.90;99.90;;;11.94;100.00;98565.97;6203898;23;20024;-68
2022/10/03 10:20:17;;;;;;;7.17;3.83;;;12.90;99.90;;;11.83;100.00;98563.69;6200974;23;20509;-68
2022/10/03 10:23:03;;;;;;;11.90;3.72;;;12.90;99.90;;;11.97;100.00;98562.41;6200888;23;20020;-68
2022/10/03 10:25:42;;;;;;;8.93;4.03;;;13.00;99.90;;;11.75;100.00;98559.63;6202812;23;20028;-68
2022/10/03 10:28:31;;;;;;;8.77;3.67;;;12.90;99.90;;;12.06;100.00;98554.31;6200866;23;20028;-68
2022/10/03 10:31:51;;;;;;;8.02;4.20;;;13.00;99.90;;;12.00;100.00;98562.34;6203516;23;20028;-68
2022/10/03 10:34:49;;;;;;;7.88;3.90;;;13.10;99.90;;;11.95;100.00;98564.22;6200724;23;20515;-68
2022/10/03 10:37:41;;;;;;;9.73;3.83;;;13.00;99.90;;;12.16;100.00;98553.13;6203912;23;20546;-68
2022/10/03 10:40:53;;;;;;;10.55;4.22;;;13.10;99.90;;;12.09;100.00;98549.03;6201348;23;20103;-68
2022/10/03 10:43:46;;;;;;;12.43;4.75;;;13.10;99.90;;;12.19;100.00;98552.16;6203384;23;20075;-68
2022/10/03 10:46:53;;;;;;;12.70;4.07;;;13.30;99.90;;;12.53;100.00;98547.50;6201809;23;20028;-68
2022/10/03 10:49:48;;;;;;;9.98;4.72;;;13.50;99.90;;;12.87;100.00;98551.50;6202434;23;20069;-68
2022/10/03 10:52:56;;;;;;;11.85;5.63;;;13.80;99.90;;;13.07;100.00;98540.34;6202175;23;20025;-68
2022/10/03 10:55:42;;;;;;;7.80;3.88;;;14.20;99.90;;;12.81;100.00;98543.91;6148410;23;20035;-68
2022/10/03 10:59:09;;;;;;;7.63;4.10;;;14.30;99.90;;;13.00;100.00;98538.00;6203198;23;20024;-68
2022/10/03 11:01:44;;;;;;;;;;;14.30;99.90;;;12.79;100.00;98548.31;6205689;23;20024;-68
2022/10/03 11:04:48;;;;;;;10.02;4.03;;;14.30;99.90;;;12.76;100.00;98544.06;6202966;23;20228;-68
2022/10/03 11:07:30;;;;;;;8.05;3.33;;;14.20;99.90;;;12.95;100.00;98546.00;6205710;23;20099;-68
2022/10/03 11:09:59;;;;;;;7.55;3.40;;;14.40;99.90;;;13.07;100.00;98534.28;6212020;23;20024;-68
2022/10/03 11:12:45;;;;;;;9.55;3.90;;;14.50;99.90;;;12.87;100.00;98538.47;6205154;23;20025;-68
2022/10/03 11:15:42;;;;;;;7.35;3.38;;;14.50;99.90;;;12.67;100.00;98541.78;6212450;23;20031;-68
2022/10/03 11:18:26;;;;;;;9.68;3.90;;;14.30;99.90;;;12.53;100.00;98539.69;6199916;23;20025;-69
2022/10/03 11:21:29;;;;;;;7.80;2.70;;;14.00;99.90;;;13.05;100.00;98531.75;6200192;23;20031;-69
2022/10/03 11:24:22;;;;;;;9.63;2.97;;;14.10;99.90;;;13.23;100.00;98525.00;6204744;23;20039;-69
2022/10/03 11:27:35;;;;;;;7.93;2.72;;;14.20;99.90;;;12.91;100.00;98524.44;6192536;23;20025;-69
2022/10/03 11:30:52;;;;;;;10.23;3.50;;;14.30;99.90;;;12.56;100.00;98530.91;6150248;23;20526;-69
2022/10/03 11:34:06;;;;;;;7.68;3.42;;;14.10;99.90;;;12.46;100.00;98532.16;6201971;23;20025;-69
2022/10/03 11:37:06;;;;;;;7.88;3.30;;;13.70;99.90;;;12.23;100.00;98539.00;6172890;23;20029;-69
2022/10/03 11:39:49;;;;;;;9.30;2.78;;;13.50;99.90;;;12.09;100.00;98534.25;6200843;23;20016;-69
2022/10/03 11:42:23;;;;;;;;;;;13.30;99.90;;;12.45;100.00;98528.69;6199750;23;20020;-69
2022/10/03 11:45:24;;;;;;;7.45;2.55;;;13.50;99.90;;;12.68;100.00;98527.88;6210967;23;19988;-69
2022/10/03 11:48:22;;;;;;;8.30;2.90;;;13.70;99.90;;;12.71;100.00;98517.34;6199421;23;20020;-69
2022/10/03 11:51:01;;;;;;;11.40;3.15;;;13.90;99.90;;;12.59;100.00;98523.00;6204409;23;20024;-69
2022/10/03 11:53:45;;;;;;;10.93;2.22;;;13.80;99.90;;;12.91;100.00;98513.19;6228250;23;20028;-69
2022/10/03 11:56:23;;;;;;;5.95;1.92;;;13.90;99.90;;;13.06;100.00;98506.53;6202755;23;20063;-68
2022/10/03 11:59:29;;;;;;;8.35;1.85;;;14.10;99.90;;;13.22;100.00;98518.06;6202791;23;20059;-67
2022/10/03 12:02:50;;;;;;;9.52;1.65;;;14.30;99.90;;;13.19;100.00;98518.19;6201005;23;20020;-67
2022/10/03 12:09:16;;;;;;;5.85;1.60;;;14.70;99.90;;;13.53;100.00;98506.47;6201842;23;20029;-68
2022/10/03 12:12:23;;;;;;;8.18;2.00;;;14.80;99.90;;;13.72;100.00;98510.03;6199423;23;20025;-68
2022/10/03 12:14:51;;;;;;;5.78;1.40;;;14.90;99.90;;;14.30;100.00;98512.00;6195379;23;20035;-68
2022/10/03 12:17:45;;;;;;;6.70;1.83;;;15.20;99.90;;;14.12;100.00;98507.56;6197940;23;20056;-67
2022/10/03 12:20:22;;;;;;;4.53;1.35;;;15.50;99.90;;;13.91;100.00;98511.88;6200994;23;20024;-67
2022/10/03 12:23:25;;;;;;;4.10;1.20;;;15.30;99.90;;;14.17;100.00;98503.00;6199456;23;20032;-65
2022/10/03 12:25:54;;;;;;;6.60;1.73;;;15.30;99.90;;;14.50;100.00;98487.59;6174834;23;20020;-65
2022/10/03 12:28:35;;;;;;;7.53;1.58;;;15.60;99.90;;;14.23;100.00;98495.75;6203597;23;20691;-65